Em Athens — V7US8 — position and weather

sailwx.info

Track history (hours):
 
Tides and Currents Weather Stations Pressure Air Temp Water Temp Dewpoint Dewpoint Depression Visibility Wind Speed Wind Dir Waves Ship Positions

Em Athens

Last reported at 2016-Jul-01 02:33 UTC. Time now 2016-Jul-25 04:24 UTC.
Position N 26°44' W 014°49'.
Warning: this ship's position is 24 days out of date.

Length 207 m; draft 11.8 m.

Type: Ship (hazmat cat C). MMSI: 538004019.

Date/timePositionNaut miles runAvg speedWind from/ knotsBaromVisibWave heightAir tempDewpointWater temp
2016-Jul-01 02:33N 26°44' W 014°49'1616.1
2016-Jul-01 01:33N 26°56' W 014°38'1716.2
2016-Jul-01 00:29N 27°10' W 014°25'1516.1
2016-Jun-30 23:33N 27°21' W 014°15'1616.1
2016-Jun-30 22:33N 27°35' W 014°04'1716.3
2016-Jun-30 21:30N 27°47' W 013°52'1516.2
2016-Jun-30 20:33N 27°59' W 013°41'1816.1
2016-Jun-30 19:25N 28°14' W 013°28'1416.2
2016-Jun-30 18:33N 28°26' W 013°20'1616.6
2016-Jun-30 17:33N 28°40' W 013°10'1716.4
2016-Jun-30 16:33N 28°54' W 012°59'1616.4
2016-Jun-30 15:33N 29°08' W 012°50'2016.4
2016-Jun-30 14:22N 29°24' W 012°37'8416.1
2016-Jun-30 09:06N 30°35' W 011°45'450 9.0
2016-Jun-28 07:12N 35°59' W 005°30'610.1
2016-Jun-28 06:34N 36°02' W 005°23'6 2.7
2016-Jun-28 04:24N 36°08' W 005°25'0 0.0
2016-Jun-28 03:30N 36°08' W 005°25'0 0.0
2016-Jun-28 02:30N 36°08' W 005°25'0 0.0
2016-Jun-28 01:33N 36°08' W 005°25'0 0.0
2016-Jun-27 23:30N 36°08' W 005°25'0 0.0
2016-Jun-27 20:12N 36°08' W 005°25'0 0.0
2016-Jun-27 19:33N 36°08' W 005°25'0 0.0
2016-Jun-27 18:33N 36°08' W 005°25'0 0.0
2016-Jun-27 17:27N 36°08' W 005°25'1 1.4
2016-Jun-27 16:33N 36°08' W 005°24'20815.9
2016-Jun-27 03:26N 37°06' W 001°14'1717.1
2016-Jun-27 02:25N 37°17' W 000°58'1517.0
2016-Jun-27 01:33N 37°27' W 000°44'1717.4
2016-Jun-27 00:34N 37°40' W 000°29'1717.0
2016-Jun-26 23:33N 37°54' W 000°17'2317.1
2016-Jun-26 22:12N 38°14' W 000°02'1416.8
2016-Jun-26 21:21N 38°25' E 000°08'6513.6
2016-Jun-26 16:33N 39°27' W 000°19'0 0.2
2016-Jun-26 15:33N 39°27' W 000°19'0 0.0
2016-Jun-26 14:33N 39°27' W 000°19'0 0.0
2016-Jun-26 13:33N 39°27' W 000°19'0 0.0
2016-Jun-26 12:33N 39°27' W 000°19'0 0.0
2016-Jun-26 11:30N 39°27' W 000°19'0 0.0
2016-Jun-26 10:33N 39°27' W 000°19'0 0.0
2016-Jun-26 09:30N 39°27' W 000°19'0 0.0
2016-Jun-26 08:33N 39°27' W 000°19'0 0.0
2016-Jun-26 07:30N 39°27' W 000°19'0 0.0
2016-Jun-26 06:33N 39°27' W 000°19'1 1.4
2016-Jun-26 05:29N 39°26' W 000°18'2 2.2
2016-Jun-26 04:33N 39°25' W 000°16'7 6.9
2016-Jun-26 03:30N 39°25' W 000°06'4217.2
2016-Jun-26 01:04N 39°47' E 000°40'1417.4
2016-Jun-26 00:16N 39°53' E 000°57'1217.4
2016-Jun-25 23:33N 40°00' E 001°09'1717.0
2016-Jun-25 22:33N 40°15' E 001°21'1717.3
2016-Jun-25 21:33N 40°30' E 001°33'1817.2
2016-Jun-25 20:30N 40°45' E 001°45'1917.2
2016-Jun-25 19:25N 41°01' E 001°58'1618.0
2016-Jun-25 18:33N 41°14' E 002°09'7 6.9
2016-Jun-25 17:31N 41°21' E 002°10'0 0.0
2016-Jun-25 16:25N 41°21' E 002°10'0 0.0
2016-Jun-25 15:31N 41°21' E 002°10'0 0.0
2016-Jun-25 14:28N 41°21' E 002°10'0 0.0
2016-Jun-25 10:25N 41°21' E 002°10'0 0.5
2016-Jun-25 09:33N 41°21' E 002°10'8 7.3
2016-Jun-25 08:25N 41°17' E 002°20'14913.5
2016-Jun-24 21:24N 42°54' E 004°52'1214.0
2016-Jun-24 20:34N 43°03' E 005°02'1513.2
2016-Jun-24 19:24N 43°17' E 005°11'5 0.1
2016-Jun-23 05:12N 43°20' E 005°16'6 8.8
2016-Jun-23 04:33N 43°16' E 005°11'5913.7
2016-Jun-23 00:15N 42°45' E 006°19'41 9.9
2016-Jun-22 20:06N 43°08' E 007°05'612.1
2016-Jun-22 19:33N 43°13' E 007°11'1312.9
2016-Jun-22 18:33N 43°21' E 007°26'1413.6
2016-Jun-22 17:33N 43°28' E 007°42'3213.8
2016-Jun-22 15:16N 43°45' E 008°18'1013.6
2016-Jun-22 14:33N 43°51' E 008°28'1413.9
2016-Jun-22 13:33N 44°02' E 008°40'1414.0
2016-Jun-22 12:33N 44°14' E 008°51'1110.5
2016-Jun-22 11:33N 44°24' E 008°55'1 1.0
2016-Jun-22 10:29N 44°24' E 008°54'0 0.0
2016-Jun-22 09:29N 44°24' E 008°54'0 0.0
2016-Jun-22 08:32N 44°24' E 008°54'0 0.0
2016-Jun-22 07:32N 44°24' E 008°54'0 0.0
2016-Jun-22 06:32N 44°24' E 008°54'0 0.0
2016-Jun-22 05:32N 44°24' E 008°54'0 0.0
2016-Jun-22 04:32N 44°24' E 008°54'1 0.6
2016-Jun-22 03:33N 44°24' E 008°55'5 5.4
2016-Jun-22 02:33N 44°19' E 008°56'3 3.0
2016-Jun-22 01:33N 44°16' E 008°53'0 0.3
2016-Jun-22 00:33N 44°16' E 008°54'0 0.3
2016-Jun-21 23:33N 44°17' E 008°53'0 0.1
2016-Jun-21 22:33N 44°17' E 008°53'1 0.7
2016-Jun-21 21:33N 44°17' E 008°54'7 7.4
2016-Jun-21 20:33N 44°12' E 009°03'1313.0
2016-Jun-21 19:33N 44°02' E 009°14'1313.1
2016-Jun-21 18:33N 43°53' E 009°27'1313.1
2016-Jun-21 17:33N 43°44' E 009°40'1313.0
2016-Jun-21 16:33N 43°35' E 009°53'1212.4
2016-Jun-21 15:33N 43°30' E 010°09'8 7.5
2016-Jun-21 14:33N 43°34' E 010°18'0 0.1
2016-Jun-21 13:31N 43°34' E 010°18'0 0.0
2016-Jun-21 12:31N 43°34' E 010°18'0 0.0
2016-Jun-21 11:22N 43°34' E 010°18'0 0.0
2016-Jun-21 10:31N 43°34' E 010°18'0 0.0
2016-Jun-21 09:31N 43°34' E 010°18'0 0.0
2016-Jun-21 08:31N 43°34' E 010°18'0 0.0
2016-Jun-21 07:31N 43°34' E 010°18'1 0.6
2016-Jun-21 06:33N 43°34' E 010°18'3 1.6
2016-Jun-21 04:30N 43°31' E 010°17'0 0.0
2016-Jun-21 03:33N 43°31' E 010°17'  
Track history (hours):
 
Tides and Currents Weather Stations Pressure Air Temp Water Temp Dewpoint Dewpoint Depression Visibility Wind Speed Wind Dir Waves Ship Positions

Em Athens

Last reported at 2016-Jul-01 02:33 UTC. Time now 2016-Jul-25 04:24 UTC.
Position N 26°44' W 014°49'.
Warning: this ship's position is 24 days out of date.

Length 207 m; draft 11.8 m.

Type: Ship (hazmat cat C). MMSI: 538004019.

Date/timePositionNaut miles runAvg speedWind from/ knotsBaromVisibWave heightAir tempDewpointWater temp
2016-Jul-01 02:33N 26°44' W 014°49'1616.1
2016-Jul-01 01:33N 26°56' W 014°38'1716.2
2016-Jul-01 00:29N 27°10' W 014°25'1516.1
2016-Jun-30 23:33N 27°21' W 014°15'1616.1
2016-Jun-30 22:33N 27°35' W 014°04'1716.3
2016-Jun-30 21:30N 27°47' W 013°52'1516.2
2016-Jun-30 20:33N 27°59' W 013°41'1816.1
2016-Jun-30 19:25N 28°14' W 013°28'1416.2
2016-Jun-30 18:33N 28°26' W 013°20'1616.6
2016-Jun-30 17:33N 28°40' W 013°10'1716.4
2016-Jun-30 16:33N 28°54' W 012°59'1616.4
2016-Jun-30 15:33N 29°08' W 012°50'2016.4
2016-Jun-30 14:22N 29°24' W 012°37'8416.1
2016-Jun-30 09:06N 30°35' W 011°45'450 9.0
2016-Jun-28 07:12N 35°59' W 005°30'610.1
2016-Jun-28 06:34N 36°02' W 005°23'6 2.7
2016-Jun-28 04:24N 36°08' W 005°25'0 0.0
2016-Jun-28 03:30N 36°08' W 005°25'0 0.0
2016-Jun-28 02:30N 36°08' W 005°25'0 0.0
2016-Jun-28 01:33N 36°08' W 005°25'0 0.0
2016-Jun-27 23:30N 36°08' W 005°25'0 0.0
2016-Jun-27 20:12N 36°08' W 005°25'0 0.0
2016-Jun-27 19:33N 36°08' W 005°25'0 0.0
2016-Jun-27 18:33N 36°08' W 005°25'0 0.0
2016-Jun-27 17:27N 36°08' W 005°25'1 1.4
2016-Jun-27 16:33N 36°08' W 005°24'20815.9
2016-Jun-27 03:26N 37°06' W 001°14'1717.1
2016-Jun-27 02:25N 37°17' W 000°58'1517.0
2016-Jun-27 01:33N 37°27' W 000°44'1717.4
2016-Jun-27 00:34N 37°40' W 000°29'1717.0
2016-Jun-26 23:33N 37°54' W 000°17'2317.1
2016-Jun-26 22:12N 38°14' W 000°02'1416.8
2016-Jun-26 21:21N 38°25' E 000°08'6513.6
2016-Jun-26 16:33N 39°27' W 000°19'0 0.2
2016-Jun-26 15:33N 39°27' W 000°19'0 0.0
2016-Jun-26 14:33N 39°27' W 000°19'0 0.0
2016-Jun-26 13:33N 39°27' W 000°19'0 0.0
2016-Jun-26 12:33N 39°27' W 000°19'0 0.0
2016-Jun-26 11:30N 39°27' W 000°19'0 0.0
2016-Jun-26 10:33N 39°27' W 000°19'0 0.0
2016-Jun-26 09:30N 39°27' W 000°19'0 0.0
2016-Jun-26 08:33N 39°27' W 000°19'0 0.0
2016-Jun-26 07:30N 39°27' W 000°19'0 0.0
2016-Jun-26 06:33N 39°27' W 000°19'1 1.4
2016-Jun-26 05:29N 39°26' W 000°18'2 2.2
2016-Jun-26 04:33N 39°25' W 000°16'7 6.9
2016-Jun-26 03:30N 39°25' W 000°06'4217.2
2016-Jun-26 01:04N 39°47' E 000°40'1417.4
2016-Jun-26 00:16N 39°53' E 000°57'1217.4
2016-Jun-25 23:33N 40°00' E 001°09'1717.0
2016-Jun-25 22:33N 40°15' E 001°21'1717.3
2016-Jun-25 21:33N 40°30' E 001°33'1817.2
2016-Jun-25 20:30N 40°45' E 001°45'1917.2
2016-Jun-25 19:25N 41°01' E 001°58'1618.0
2016-Jun-25 18:33N 41°14' E 002°09'7 6.9
2016-Jun-25 17:31N 41°21' E 002°10'0 0.0
2016-Jun-25 16:25N 41°21' E 002°10'0 0.0
2016-Jun-25 15:31N 41°21' E 002°10'0 0.0
2016-Jun-25 14:28N 41°21' E 002°10'0 0.0
2016-Jun-25 10:25N 41°21' E 002°10'0 0.5
2016-Jun-25 09:33N 41°21' E 002°10'8 7.3
2016-Jun-25 08:25N 41°17' E 002°20'14913.5
2016-Jun-24 21:24N 42°54' E 004°52'1214.0
2016-Jun-24 20:34N 43°03' E 005°02'1513.2
2016-Jun-24 19:24N 43°17' E 005°11'5 0.1
2016-Jun-23 05:12N 43°20' E 005°16'6 8.8
2016-Jun-23 04:33N 43°16' E 005°11'5913.7
2016-Jun-23 00:15N 42°45' E 006°19'41 9.9
2016-Jun-22 20:06N 43°08' E 007°05'612.1
2016-Jun-22 19:33N 43°13' E 007°11'1312.9
2016-Jun-22 18:33N 43°21' E 007°26'1413.6
2016-Jun-22 17:33N 43°28' E 007°42'3213.8
2016-Jun-22 15:16N 43°45' E 008°18'1013.6
2016-Jun-22 14:33N 43°51' E 008°28'1413.9
2016-Jun-22 13:33N 44°02' E 008°40'1414.0
2016-Jun-22 12:33N 44°14' E 008°51'1110.5
2016-Jun-22 11:33N 44°24' E 008°55'1 1.0
2016-Jun-22 10:29N 44°24' E 008°54'0 0.0
2016-Jun-22 09:29N 44°24' E 008°54'0 0.0
2016-Jun-22 08:32N 44°24' E 008°54'0 0.0
2016-Jun-22 07:32N 44°24' E 008°54'0 0.0
2016-Jun-22 06:32N 44°24' E 008°54'0 0.0
2016-Jun-22 05:32N 44°24' E 008°54'0 0.0
2016-Jun-22 04:32N 44°24' E 008°54'1 0.6
2016-Jun-22 03:33N 44°24' E 008°55'5 5.4
2016-Jun-22 02:33N 44°19' E 008°56'3 3.0
2016-Jun-22 01:33N 44°16' E 008°53'0 0.3
2016-Jun-22 00:33N 44°16' E 008°54'0 0.3
2016-Jun-21 23:33N 44°17' E 008°53'0 0.1
2016-Jun-21 22:33N 44°17' E 008°53'1 0.7
2016-Jun-21 21:33N 44°17' E 008°54'7 7.4
2016-Jun-21 20:33N 44°12' E 009°03'1313.0
2016-Jun-21 19:33N 44°02' E 009°14'1313.1
2016-Jun-21 18:33N 43°53' E 009°27'1313.1
2016-Jun-21 17:33N 43°44' E 009°40'1313.0
2016-Jun-21 16:33N 43°35' E 009°53'1212.4
2016-Jun-21 15:33N 43°30' E 010°09'8 7.5
2016-Jun-21 14:33N 43°34' E 010°18'0 0.1
2016-Jun-21 13:31N 43°34' E 010°18'0 0.0
2016-Jun-21 12:31N 43°34' E 010°18'0 0.0
2016-Jun-21 11:22N 43°34' E 010°18'0 0.0
2016-Jun-21 10:31N 43°34' E 010°18'0 0.0
2016-Jun-21 09:31N 43°34' E 010°18'0 0.0
2016-Jun-21 08:31N 43°34' E 010°18'0 0.0
2016-Jun-21 07:31N 43°34' E 010°18'1 0.6
2016-Jun-21 06:33N 43°34' E 010°18'3 1.6
2016-Jun-21 04:30N 43°31' E 010°17'0 0.0
2016-Jun-21 03:33N 43°31' E 010°17'  

Dump ship's entire track history